THY92W FALE-FAOR
Flight info
| Callsign | THY92W |
|---|---|
| Flight time | N/A |
| Altitude | 36000 |
| Route | DCT GEPOM UZ29 UNPOM UNPOM1B |
| Aircraft | A359/H-V/N |
Departure
| Time | 2026-04-28 02:15 |
|---|---|
| Airport | King Shaka International Airport (FALE) |
Arrival
| Time | N/A |
|---|---|
| Airport | O.R. Tambo International Airport (FAOR) |
| Time | Latitude | Longitude | Altitude | Speed | Heading |
|---|---|---|---|---|---|
| 2026-04-28 01:47 | -29.61719 | 31.10639 | 287 ft | 0 kts | 127° |
| 2026-04-28 02:04 | -29.61702 | 31.10614 | 292 ft | 4 kts | 127° |
| 2026-04-28 02:04 | -29.61686 | 31.10590 | 290 ft | 4 kts | 127° |
| 2026-04-28 02:04 | -29.61670 | 31.10565 | 296 ft | 3 kts | 127° |
| 2026-04-28 02:04 | -29.61674 | 31.10572 | 292 ft | 4 kts | 127° |
| 2026-04-28 02:05 | -29.61675 | 31.10574 | 292 ft | 0 kts | 127° |
| 2026-04-28 02:07 | -29.61676 | 31.10575 | 292 ft | 0 kts | 127° |
| 2026-04-28 02:07 | -29.61677 | 31.10580 | 294 ft | 2 kts | 113° |
| 2026-04-28 02:08 | -29.61662 | 31.10594 | 290 ft | 6 kts | 19° |
| 2026-04-28 02:08 | -29.61569 | 31.10623 | 286 ft | 17 kts | 24° |
| 2026-04-28 02:08 | -29.61535 | 31.10739 | 289 ft | 18 kts | 114° |
| 2026-04-28 02:08 | -29.61613 | 31.10864 | 291 ft | 21 kts | 127° |
| 2026-04-28 02:09 | -29.61707 | 31.11005 | 287 ft | 23 kts | 128° |
| 2026-04-28 02:09 | -29.61779 | 31.11149 | 287 ft | 12 kts | 83° |
| 2026-04-28 02:09 | -29.61742 | 31.11191 | 287 ft | 9 kts | 34° |
| 2026-04-28 02:09 | -29.61683 | 31.11243 | 286 ft | 13 kts | 37° |
| 2026-04-28 02:10 | -29.61601 | 31.11314 | 286 ft | 17 kts | 37° |
| 2026-04-28 02:10 | -29.61500 | 31.11403 | 287 ft | 20 kts | 37° |
| 2026-04-28 02:10 | -29.61381 | 31.11506 | 293 ft | 23 kts | 37° |
| 2026-04-28 02:10 | -29.61246 | 31.11624 | 289 ft | 26 kts | 37° |
| 2026-04-28 02:11 | -29.61097 | 31.11754 | 287 ft | 29 kts | 37° |
| 2026-04-28 02:11 | -29.60936 | 31.11894 | 291 ft | 30 kts | 37° |
| 2026-04-28 02:11 | -29.60784 | 31.12026 | 290 ft | 25 kts | 37° |
| 2026-04-28 02:11 | -29.60635 | 31.12156 | 287 ft | 28 kts | 37° |
| 2026-04-28 02:12 | -29.60474 | 31.12297 | 293 ft | 30 kts | 37° |
| 2026-04-28 02:12 | -29.60307 | 31.12443 | 293 ft | 26 kts | 37° |
| 2026-04-28 02:12 | -29.60157 | 31.12573 | 290 ft | 28 kts | 37° |
| 2026-04-28 02:12 | -29.59992 | 31.12717 | 291 ft | 31 kts | 37° |
| 2026-04-28 02:13 | -29.59832 | 31.12856 | 290 ft | 12 kts | 37° |
| 2026-04-28 02:13 | -29.59782 | 31.12904 | 287 ft | 11 kts | 51° |
| 2026-04-28 02:13 | -29.59794 | 31.12983 | 292 ft | 11 kts | 120° |
| 2026-04-28 02:13 | -29.59852 | 31.13053 | 297 ft | 13 kts | 163° |
| 2026-04-28 02:14 | -29.59938 | 31.13010 | 291 ft | 15 kts | 217° |
| 2026-04-28 02:14 | -29.59954 | 31.12995 | 295 ft | 1 kts | 217° |
| 2026-04-28 02:14 | -29.59956 | 31.12994 | 296 ft | 0 kts | 217° |
| 2026-04-28 02:14 | -29.60053 | 31.12909 | 287 ft | 56 kts | 217° |
| 2026-04-28 02:15 | -29.61472 | 31.11671 | 642 ft | 168 kts | 217° |
| 2026-04-28 02:15 | -29.62361 | 31.10882 | 1670 ft | 158 kts | 218° |
| 2026-04-28 02:15 | -29.63280 | 31.10063 | 2297 ft | 181 kts | 216° |
| 2026-04-28 02:16 | -29.64372 | 31.09103 | 2676 ft | 215 kts | 216° |
| 2026-04-28 02:16 | -29.65629 | 31.07999 | 3273 ft | 236 kts | 215° |
| 2026-04-28 02:16 | -29.66878 | 31.06723 | 4161 ft | 247 kts | 226° |
| 2026-04-28 02:16 | -29.67791 | 31.04997 | 4966 ft | 262 kts | 249° |
| 2026-04-28 02:17 | -29.67945 | 31.02889 | 5847 ft | 272 kts | 282° |
| 2026-04-28 02:17 | -29.67103 | 31.00983 | 6952 ft | 267 kts | 312° |
| 2026-04-28 02:17 | -29.65768 | 30.99536 | 8191 ft | 261 kts | 321° |
| 2026-04-28 02:17 | -29.64240 | 30.98403 | 9437 ft | 263 kts | 330° |
| 2026-04-28 02:18 | -29.62568 | 30.97595 | 10502 ft | 270 kts | 338° |
| 2026-04-28 02:18 | -29.60660 | 30.97065 | 11077 ft | 297 kts | 345° |
| 2026-04-28 02:18 | -29.58507 | 30.96885 | 11600 ft | 323 kts | 354° |
| 2026-04-28 02:18 | -29.56210 | 30.97152 | 12355 ft | 341 kts | 4° |
| 2026-04-28 02:19 | -29.53877 | 30.97899 | 13196 ft | 357 kts | 13° |
| 2026-04-28 02:19 | -29.51577 | 30.99143 | 13998 ft | 375 kts | 22° |
| 2026-04-28 02:19 | -29.49395 | 31.00886 | 14704 ft | 390 kts | 33° |
| 2026-04-28 02:19 | -29.47425 | 31.03105 | 15458 ft | 403 kts | 43° |
| 2026-04-28 02:20 | -29.45749 | 31.05754 | 16239 ft | 416 kts | 53° |
| 2026-04-28 02:20 | -29.43920 | 31.08287 | 16955 ft | 409 kts | 33° |
| 2026-04-28 02:20 | -29.41546 | 31.09963 | 17730 ft | 394 kts | 11° |
| 2026-04-28 02:20 | -29.38948 | 31.10549 | 18527 ft | 371 kts | 349° |
| 2026-04-28 02:21 | -29.36484 | 31.10078 | 19235 ft | 351 kts | 329° |
| 2026-04-28 02:21 | -29.34371 | 31.08820 | 19969 ft | 338 kts | 317° |
| 2026-04-28 02:21 | -29.32472 | 31.07264 | 20857 ft | 334 kts | 313° |
| 2026-04-28 02:21 | -29.30682 | 31.05600 | 21750 ft | 331 kts | 310° |
| 2026-04-28 02:22 | -29.28920 | 31.03882 | 22527 ft | 334 kts | 310° |
| 2026-04-28 02:22 | -29.27146 | 31.02145 | 23357 ft | 337 kts | 310° |
| 2026-04-28 02:22 | -29.25345 | 31.00413 | 24118 ft | 340 kts | 310° |
| 2026-04-28 02:22 | -29.23506 | 30.98672 | 24652 ft | 347 kts | 310° |
| 2026-04-28 02:23 | -29.21622 | 30.96914 | 25245 ft | 352 kts | 311° |
| 2026-04-28 02:23 | -29.19709 | 30.95151 | 25896 ft | 354 kts | 311° |
| 2026-04-28 02:23 | -29.17778 | 30.93388 | 26535 ft | 357 kts | 310° |
| 2026-04-28 02:23 | -29.15834 | 30.91610 | 27164 ft | 359 kts | 310° |
| 2026-04-28 02:24 | -29.13881 | 30.89815 | 27815 ft | 361 kts | 310° |
| 2026-04-28 02:24 | -29.11940 | 30.88035 | 28461 ft | 364 kts | 310° |
| 2026-04-28 02:24 | -29.09924 | 30.86187 | 29097 ft | 367 kts | 310° |
| 2026-04-28 02:24 | -29.07925 | 30.84355 | 29718 ft | 370 kts | 310° |
| 2026-04-28 02:25 | -29.05933 | 30.82529 | 30227 ft | 374 kts | 310° |
| 2026-04-28 02:25 | -29.03866 | 30.80637 | 30616 ft | 378 kts | 310° |
| 2026-04-28 02:25 | -29.01828 | 30.78782 | 30907 ft | 381 kts | 311° |
| 2026-04-28 02:25 | -28.99741 | 30.76896 | 31072 ft | 383 kts | 311° |
| 2026-04-28 02:26 | -28.97601 | 30.75066 | 31067 ft | 386 kts | 314° |
| 2026-04-28 02:26 | -28.95293 | 30.73474 | 30554 ft | 392 kts | 320° |
| 2026-04-28 02:26 | -28.92743 | 30.72192 | 29440 ft | 413 kts | 328° |
| 2026-04-28 02:26 | -28.89879 | 30.71344 | 28392 ft | 437 kts | 338° |
| 2026-04-28 02:27 | -28.86783 | 30.71070 | 27536 ft | 456 kts | 348° |
| 2026-04-28 02:27 | -28.83569 | 30.71452 | 26813 ft | 473 kts | 359° |
| 2026-04-28 02:27 | -28.80427 | 30.72619 | 25703 ft | 483 kts | 14° |
| 2026-04-28 02:27 | -28.77564 | 30.74732 | 24523 ft | 499 kts | 32° |
| 2026-04-28 02:28 | -28.75941 | 30.76605 | 23762 ft | 506 kts | 43° |
| 2026-04-28 02:28 | -28.74063 | 30.80015 | 22587 ft | 510 kts | 62° |
| 2026-04-28 02:28 | -28.73099 | 30.83828 | 22026 ft | 494 kts | 81° |
| 2026-04-28 02:28 | -28.73100 | 30.87647 | 21542 ft | 471 kts | 100° |
| 2026-04-28 02:29 | -28.74030 | 30.91091 | 21098 ft | 442 kts | 122° |
| 2026-04-28 02:29 | -28.75719 | 30.93841 | 20450 ft | 410 kts | 144° |
| 2026-04-28 02:29 | -28.77902 | 30.95748 | 19771 ft | 385 kts | 159° |
| 2026-04-28 02:29 | -28.80230 | 30.97129 | 19049 ft | 373 kts | 167° |
| 2026-04-28 02:30 | -28.82556 | 30.98394 | 18385 ft | 369 kts | 164° |
| 2026-04-28 02:30 | -28.84807 | 30.99778 | 17572 ft | 367 kts | 161° |
| 2026-04-28 02:30 | -28.86994 | 31.01251 | 16751 ft | 364 kts | 158° |
| 2026-04-28 02:30 | -28.89127 | 31.02765 | 15989 ft | 358 kts | 157° |
| 2026-04-28 02:31 | -28.91215 | 31.04289 | 15233 ft | 354 kts | 156° |
| 2026-04-28 02:31 | -28.93266 | 31.05811 | 14484 ft | 350 kts | 155° |
| 2026-04-28 02:31 | -28.95279 | 31.07318 | 13903 ft | 341 kts | 155° |
| 2026-04-28 02:31 | -28.97255 | 31.08805 | 13485 ft | 341 kts | 155° |
| 2026-04-28 02:32 | -28.99227 | 31.10289 | 13084 ft | 337 kts | 154° |
| 2026-04-28 02:32 | -29.01172 | 31.11760 | 12668 ft | 334 kts | 153° |
| 2026-04-28 02:32 | -29.03096 | 31.13215 | 12268 ft | 330 kts | 153° |
| 2026-04-28 02:32 | -29.04999 | 31.14658 | 11869 ft | 326 kts | 152° |
| 2026-04-28 02:33 | -29.06880 | 31.16085 | 11480 ft | 323 kts | 152° |
| 2026-04-28 02:33 | -29.08744 | 31.17499 | 11109 ft | 320 kts | 152° |
| 2026-04-28 02:33 | -29.10592 | 31.18902 | 10709 ft | 318 kts | 151° |
| 2026-04-28 02:33 | -29.12426 | 31.20294 | 10333 ft | 315 kts | 151° |
| 2026-04-28 02:34 | -29.14246 | 31.21676 | 9949 ft | 313 kts | 149° |
| 2026-04-28 02:34 | -29.16052 | 31.23050 | 9545 ft | 311 kts | 150° |
| 2026-04-28 02:34 | -29.17846 | 31.24414 | 9129 ft | 308 kts | 149° |
| 2026-04-28 02:34 | -29.19624 | 31.25766 | 8714 ft | 306 kts | 148° |
| 2026-04-28 02:35 | -29.21387 | 31.27115 | 8329 ft | 304 kts | 148° |
| 2026-04-28 02:35 | -29.23129 | 31.28444 | 7939 ft | 299 kts | 148° |
| 2026-04-28 02:35 | -29.24845 | 31.29752 | 7512 ft | 294 kts | 148° |
| 2026-04-28 02:35 | -29.26533 | 31.31039 | 7125 ft | 289 kts | 148° |
| 2026-04-28 02:36 | -29.28170 | 31.32287 | 6750 ft | 285 kts | 148° |
| 2026-04-28 02:36 | -29.29822 | 31.33542 | 6346 ft | 285 kts | 147° |
| 2026-04-28 02:36 | -29.31484 | 31.34778 | 5933 ft | 282 kts | 152° |
| 2026-04-28 02:36 | -29.33278 | 31.35378 | 5542 ft | 260 kts | 184° |
| 2026-04-28 02:37 | -29.34893 | 31.34794 | 5267 ft | 236 kts | 214° |
| 2026-04-28 02:37 | -29.36182 | 31.33683 | 5013 ft | 229 kts | 221° |
| 2026-04-28 02:37 | -29.37394 | 31.32521 | 4710 ft | 220 kts | 222° |
| 2026-04-28 02:37 | -29.38584 | 31.31427 | 4357 ft | 219 kts | 219° |
| 2026-04-28 02:38 | -29.39770 | 31.30388 | 4042 ft | 216 kts | 219° |
| 2026-04-28 02:38 | -29.40963 | 31.29366 | 3673 ft | 213 kts | 219° |
| 2026-04-28 02:38 | -29.42159 | 31.28345 | 3355 ft | 214 kts | 220° |
| 2026-04-28 02:38 | -29.43329 | 31.27328 | 3100 ft | 204 kts | 219° |
| 2026-04-28 02:39 | -29.44414 | 31.26392 | 2910 ft | 188 kts | 218° |
| 2026-04-28 02:39 | -29.45428 | 31.25527 | 2904 ft | 176 kts | 219° |
| 2026-04-28 02:39 | -29.46388 | 31.24702 | 2851 ft | 167 kts | 219° |
| 2026-04-28 02:39 | -29.47277 | 31.23955 | 2884 ft | 149 kts | 219° |
| 2026-04-28 02:40 | -29.48069 | 31.23269 | 2881 ft | 138 kts | 222° |
| 2026-04-28 02:40 | -29.48816 | 31.22610 | 2888 ft | 133 kts | 220° |
| 2026-04-28 02:40 | -29.49539 | 31.21975 | 2821 ft | 130 kts | 221° |
| 2026-04-28 02:40 | -29.50255 | 31.21358 | 2643 ft | 128 kts | 215° |
| 2026-04-28 02:41 | -29.50989 | 31.20735 | 2478 ft | 130 kts | 219° |
| 2026-04-28 02:41 | -29.51691 | 31.20120 | 2279 ft | 124 kts | 222° |
| 2026-04-28 02:41 | -29.52370 | 31.19531 | 2127 ft | 120 kts | 221° |
| 2026-04-28 02:41 | -29.53048 | 31.18952 | 1977 ft | 121 kts | 227° |
| 2026-04-28 02:42 | -29.53700 | 31.18389 | 1797 ft | 112 kts | 228° |
| 2026-04-28 02:42 | -29.54307 | 31.17876 | 1648 ft | 107 kts | 235° |
| 2026-04-28 02:42 | -29.54923 | 31.17325 | 1510 ft | 115 kts | 232° |
| 2026-04-28 02:42 | -29.55560 | 31.16778 | 1347 ft | 116 kts | 231° |
| 2026-04-28 02:43 | -29.56236 | 31.16195 | 1199 ft | 128 kts | 217° |
| 2026-04-28 02:43 | -29.56957 | 31.15574 | 1023 ft | 129 kts | 218° |
| 2026-04-28 02:43 | -29.57667 | 31.14957 | 867 ft | 128 kts | 219° |
| 2026-04-28 02:43 | -29.58382 | 31.14338 | 675 ft | 130 kts | 220° |
| 2026-04-28 02:44 | -29.59098 | 31.13721 | 516 ft | 128 kts | 219° |
| 2026-04-28 02:44 | -29.59807 | 31.13107 | 336 ft | 128 kts | 219° |
| 2026-04-28 02:44 | -29.60486 | 31.12523 | 295 ft | 109 kts | 216° |
| 2026-04-28 02:44 | -29.60881 | 31.12190 | 287 ft | 30 kts | 217° |
| 2026-04-28 02:45 | -29.60988 | 31.12089 | 287 ft | 9 kts | 228° |
| 2026-04-28 02:45 | -29.61035 | 31.12025 | 292 ft | 11 kts | 230° |
| 2026-04-28 02:45 | -29.61091 | 31.11951 | 294 ft | 13 kts | 230° |
| 2026-04-28 02:45 | -29.61147 | 31.11870 | 293 ft | 14 kts | 232° |